Lexa Maersk — OYYL2 — position and weather

sailwx.info

Track history (hours):
 
Tides and Currents Weather Stations Pressure Air Temp Water Temp Dewpoint Dewpoint Depression Visibility Wind Speed Wind Dir Waves Ship Positions

Lexa Maersk

Last reported at 2014-Jul-30 14:34 UTC. Time now 2014-Jul-30 15:06 UTC.
Position S 36°51' E 174°47'.

Length 265.8 m; beam 37.3 m; draft 14 m.

Type: Ship (hazmat cat A). MMSI: 219979000.

Date/timePositionNaut miles runAvg speedWind from/ knotsBaromVisibWave heightAir tempDewpointWater temp
2014-Jul-30 14:34S 36°51' E 174°47'0 0.0
2014-Jul-30 13:28S 36°51' E 174°47'0 0.0
2014-Jul-30 12:33S 36°51' E 174°47'0 0.0
2014-Jul-30 11:34S 36°51' E 174°47'0 0.0
2014-Jul-30 10:28S 36°51' E 174°47'0 0.0
2014-Jul-30 09:34S 36°51' E 174°47'0 0.0
2014-Jul-30 08:34S 36°51' E 174°47'0 0.0
2014-Jul-30 07:28S 36°51' E 174°47'0 0.0
2014-Jul-30 06:28S 36°51' E 174°47'0 0.0
2014-Jul-30 05:34S 36°51' E 174°47'0 0.0
2014-Jul-30 04:10S 36°51' E 174°47'0 0.0
2014-Jul-30 03:33S 36°51' E 174°47'0 0.0
2014-Jul-30 02:34S 36°51' E 174°47'1 1.4
2014-Jul-30 01:33S 36°50' E 174°49'10 9.7
2014-Jul-30 00:33S 36°41' E 174°53'1110.6
2014-Jul-29 23:33S 36°32' E 174°59'1110.6
2014-Jul-29 22:31S 36°21' E 174°59'  
2014-Jul-27 00:06S 26°46' E 153°23'1017.8
2014-Jul-26 23:33S 26°43' E 153°13'1010.3
2014-Jul-26 22:33S 26°53' E 153°10'1515.5
2014-Jul-26 21:33S 27°06' E 153°19'1313.0
2014-Jul-26 20:33S 27°18' E 153°13'5 4.2
2014-Jul-26 19:29S 27°22' E 153°11'0 0.0
2014-Jul-26 18:32S 27°22' E 153°11'0 0.0
2014-Jul-26 17:32S 27°22' E 153°11'0 0.0
2014-Jul-26 16:32S 27°22' E 153°11'0 0.0
2014-Jul-26 15:32S 27°22' E 153°11'0 0.0
2014-Jul-26 14:32S 27°22' E 153°11'0 0.0
2014-Jul-26 13:32S 27°22' E 153°11'0 0.0
2014-Jul-26 12:32S 27°22' E 153°11'0 0.0
2014-Jul-26 11:29S 27°22' E 153°11'0 0.0
2014-Jul-26 10:32S 27°22' E 153°11'0 0.0
2014-Jul-26 09:32S 27°22' E 153°11'0 0.0
2014-Jul-26 08:32S 27°22' E 153°11'0 0.0
2014-Jul-26 07:32S 27°22' E 153°11'0 0.0
2014-Jul-26 06:32S 27°22' E 153°11'0 0.0
2014-Jul-26 05:32S 27°22' E 153°11'0 0.0
2014-Jul-26 04:32S 27°22' E 153°11'0 0.0
2014-Jul-26 03:32S 27°22' E 153°11'0 0.0
2014-Jul-26 02:32S 27°22' E 153°11'0 0.0
2014-Jul-26 01:32S 27°22' E 153°11'0 0.0
2014-Jul-26 00:33S 27°22' E 153°11'3 2.6
2014-Jul-25 23:34S 27°20' E 153°12'1514.8
2014-Jul-25 22:33S 27°06' E 153°20'1817.5
2014-Jul-25 21:33S 26°51' E 153°09'1211.5
2014-Jul-25 20:33S 26°40' E 153°13'1414.0
2014-Jul-25 19:33S 26°27' E 153°16'1615.3
2014-Jul-25 18:30S 26°10' E 153°18'1815.8
2014-Jul-25 17:21S 25°52' E 153°20'2015.9
2014-Jul-25 16:04S 25°32' E 153°22'3015.8
2014-Jul-25 14:09S 25°02' E 153°25'1016.0
2014-Jul-25 13:31S 24°52' E 153°24'  
2014-Jul-20 15:10S 08°37' E 129°08'  
Track history (hours):
 
Tides and Currents Weather Stations Pressure Air Temp Water Temp Dewpoint Dewpoint Depression Visibility Wind Speed Wind Dir Waves Ship Positions

Lexa Maersk

Last reported at 2014-Jul-30 14:34 UTC. Time now 2014-Jul-30 15:06 UTC.
Position S 36°51' E 174°47'.

Length 265.8 m; beam 37.3 m; draft 14 m.

Type: Ship (hazmat cat A). MMSI: 219979000.

Date/timePositionNaut miles runAvg speedWind from/ knotsBaromVisibWave heightAir tempDewpointWater temp
2014-Jul-30 14:34S 36°51' E 174°47'0 0.0
2014-Jul-30 13:28S 36°51' E 174°47'0 0.0
2014-Jul-30 12:33S 36°51' E 174°47'0 0.0
2014-Jul-30 11:34S 36°51' E 174°47'0 0.0
2014-Jul-30 10:28S 36°51' E 174°47'0 0.0
2014-Jul-30 09:34S 36°51' E 174°47'0 0.0
2014-Jul-30 08:34S 36°51' E 174°47'0 0.0
2014-Jul-30 07:28S 36°51' E 174°47'0 0.0
2014-Jul-30 06:28S 36°51' E 174°47'0 0.0
2014-Jul-30 05:34S 36°51' E 174°47'0 0.0
2014-Jul-30 04:10S 36°51' E 174°47'0 0.0
2014-Jul-30 03:33S 36°51' E 174°47'0 0.0
2014-Jul-30 02:34S 36°51' E 174°47'1 1.4
2014-Jul-30 01:33S 36°50' E 174°49'10 9.7
2014-Jul-30 00:33S 36°41' E 174°53'1110.6
2014-Jul-29 23:33S 36°32' E 174°59'1110.6
2014-Jul-29 22:31S 36°21' E 174°59'  
2014-Jul-27 00:06S 26°46' E 153°23'1017.8
2014-Jul-26 23:33S 26°43' E 153°13'1010.3
2014-Jul-26 22:33S 26°53' E 153°10'1515.5
2014-Jul-26 21:33S 27°06' E 153°19'1313.0
2014-Jul-26 20:33S 27°18' E 153°13'5 4.2
2014-Jul-26 19:29S 27°22' E 153°11'0 0.0
2014-Jul-26 18:32S 27°22' E 153°11'0 0.0
2014-Jul-26 17:32S 27°22' E 153°11'0 0.0
2014-Jul-26 16:32S 27°22' E 153°11'0 0.0
2014-Jul-26 15:32S 27°22' E 153°11'0 0.0
2014-Jul-26 14:32S 27°22' E 153°11'0 0.0
2014-Jul-26 13:32S 27°22' E 153°11'0 0.0
2014-Jul-26 12:32S 27°22' E 153°11'0 0.0
2014-Jul-26 11:29S 27°22' E 153°11'0 0.0
2014-Jul-26 10:32S 27°22' E 153°11'0 0.0
2014-Jul-26 09:32S 27°22' E 153°11'0 0.0
2014-Jul-26 08:32S 27°22' E 153°11'0 0.0
2014-Jul-26 07:32S 27°22' E 153°11'0 0.0
2014-Jul-26 06:32S 27°22' E 153°11'0 0.0
2014-Jul-26 05:32S 27°22' E 153°11'0 0.0
2014-Jul-26 04:32S 27°22' E 153°11'0 0.0
2014-Jul-26 03:32S 27°22' E 153°11'0 0.0
2014-Jul-26 02:32S 27°22' E 153°11'0 0.0
2014-Jul-26 01:32S 27°22' E 153°11'0 0.0
2014-Jul-26 00:33S 27°22' E 153°11'3 2.6
2014-Jul-25 23:34S 27°20' E 153°12'1514.8
2014-Jul-25 22:33S 27°06' E 153°20'1817.5
2014-Jul-25 21:33S 26°51' E 153°09'1211.5
2014-Jul-25 20:33S 26°40' E 153°13'1414.0
2014-Jul-25 19:33S 26°27' E 153°16'1615.3
2014-Jul-25 18:30S 26°10' E 153°18'1815.8
2014-Jul-25 17:21S 25°52' E 153°20'2015.9
2014-Jul-25 16:04S 25°32' E 153°22'3015.8
2014-Jul-25 14:09S 25°02' E 153°25'1016.0
2014-Jul-25 13:31S 24°52' E 153°24'  
2014-Jul-20 15:10S 08°37' E 129°08'  

Dump ship's entire track history